createdAt,value
2022-12-01T06:49:00.512Z,0.12
2022-12-01T06:51:28.273Z,0.15
2022-12-01T06:53:58.677Z,0.14
2022-12-01T06:56:31.249Z,0.26
2022-12-01T06:58:59.152Z,0.25
2022-12-01T07:01:27.094Z,0.29
2022-12-01T07:03:54.914Z,0.32
2022-12-01T07:06:24.104Z,0.35
2022-12-01T07:08:53.858Z,0.34
2022-12-01T07:11:21.725Z,0.35
2022-12-01T07:13:49.444Z,0.38
2022-12-01T07:16:17.218Z,0.40
2022-12-01T07:18:45.227Z,0.42
2022-12-01T07:21:14.401Z,0.34
2022-12-01T07:23:43.760Z,0.48
2022-12-01T07:26:13.467Z,0.48
2022-12-01T07:28:41.423Z,0.54
2022-12-01T07:31:10.730Z,0.58
2022-12-01T07:33:38.998Z,0.58
2022-12-01T07:36:07.800Z,0.59
2022-12-01T07:38:36.283Z,0.60
2022-12-01T07:41:07.169Z,0.58
2022-12-01T07:43:35.159Z,0.63
2022-12-01T07:46:07.872Z,0.58
2022-12-01T07:48:36.392Z,0.63
2022-12-01T07:51:04.526Z,0.69
2022-12-01T07:53:33.479Z,0.70
2022-12-01T07:56:06.907Z,0.69
2022-12-01T07:58:39.046Z,0.64
2022-12-01T08:01:10.331Z,0.68
2022-12-01T08:03:38.641Z,0.80
2022-12-01T08:06:07.341Z,0.76
2022-12-01T08:08:37.910Z,0.93
2022-12-01T08:11:08.172Z,0.92
2022-12-01T08:13:35.895Z,0.82
2022-12-01T08:16:06.451Z,0.80
2022-12-01T08:18:34.752Z,0.83
2022-12-01T08:21:02.615Z,0.77
2022-12-01T08:23:30.307Z,0.79
2022-12-01T08:26:00.999Z,0.81
2022-12-01T08:28:29.187Z,0.87
2022-12-01T08:30:57.011Z,0.87
2022-12-01T08:33:26.210Z,0.94
2022-12-01T08:41:09.965Z,0.98
2022-12-01T08:46:26.646Z,1.08
2022-12-01T08:48:54.336Z,1.09
2022-12-01T08:51:21.973Z,1.01
2022-12-01T08:53:50.253Z,1.04
2022-12-01T08:56:21.971Z,1.01
2022-12-01T08:58:49.293Z,0.99
2022-12-01T09:01:18.124Z,1.02
2022-12-01T09:03:46.085Z,0.93
2022-12-01T09:06:16.719Z,0.91
2022-12-01T09:08:44.682Z,0.90
2022-12-01T09:11:15.344Z,0.96
2022-12-01T09:13:49.877Z,0.94
2022-12-01T09:16:20.765Z,0.89
2022-12-01T09:18:49.032Z,0.96
2022-12-01T09:21:18.685Z,1.07
2022-12-01T09:23:46.823Z,1.08
2022-12-01T09:26:15.242Z,0.99
2022-12-01T09:28:44.730Z,0.94
2022-12-01T09:31:14.144Z,0.83
2022-12-01T09:33:42.385Z,0.73
2022-12-01T09:36:11.205Z,0.79
2022-12-01T09:38:39.341Z,0.79
2022-12-01T09:41:13.295Z,0.83
2022-12-01T09:43:43.812Z,0.79
2022-12-01T09:46:22.252Z,0.65
2022-12-01T09:48:52.689Z,0.71
2022-12-01T09:51:24.119Z,0.63
2022-12-01T09:53:54.629Z,0.68
2022-12-01T09:56:24.668Z,0.67
2022-12-01T09:58:54.220Z,0.66
2022-12-01T10:01:31.368Z,0.66
2022-12-01T10:04:04.979Z,0.71
2022-12-01T10:06:38.893Z,0.73
2022-12-01T10:09:18.202Z,0.77
2022-12-01T10:11:47.534Z,0.78
2022-12-01T10:14:20.143Z,0.74
2022-12-01T10:17:01.297Z,0.75
2022-12-01T10:19:36.090Z,0.83
2022-12-01T10:22:24.622Z,0.86
2022-12-01T10:24:56.148Z,0.82
2022-12-01T10:27:40.168Z,0.82
2022-12-01T10:30:12.619Z,0.69
2022-12-01T10:32:51.385Z,0.78
2022-12-01T10:35:21.682Z,0.77
2022-12-01T10:37:54.983Z,0.79
2022-12-01T10:40:23.191Z,0.79
2022-12-01T10:42:51.369Z,0.89
2022-12-01T10:45:23.281Z,0.87
2022-12-01T16:24:06.666Z,-0.29
2022-12-01T16:26:34.542Z,-0.30
2022-12-01T16:29:02.138Z,-0.29
2022-12-01T16:31:30.254Z,-0.33
2022-12-01T16:34:13.982Z,-0.35
2022-12-01T16:36:46.630Z,-0.35
2022-12-01T16:39:16.157Z,-0.34
2022-12-01T16:41:43.960Z,-0.32
2022-12-01T16:44:28.198Z,-0.38
2022-12-01T16:46:56.640Z,-0.40
2022-12-01T16:49:24.356Z,-0.33
2022-12-01T16:51:56.814Z,-0.34
2022-12-01T16:54:26.626Z,-0.32
2022-12-01T16:56:54.257Z,-0.33
2022-12-01T16:59:21.824Z,-0.28
2022-12-01T17:01:49.624Z,-0.33
2022-12-01T17:04:17.278Z,-0.31
2022-12-01T17:06:44.918Z,-0.31
2022-12-01T17:09:13.169Z,-0.30
2022-12-01T17:11:42.151Z,-0.30
2022-12-01T17:14:10.297Z,-0.34
2022-12-01T17:16:38.536Z,-0.35
2022-12-01T17:19:06.271Z,-0.37
2022-12-01T17:21:33.899Z,-0.36
2022-12-01T17:24:01.631Z,-0.33
2022-12-01T17:26:29.762Z,-0.40
2022-12-01T17:28:58.891Z,-0.36
2022-12-01T17:31:26.952Z,-0.37
2022-12-01T17:33:54.782Z,-0.37
2022-12-01T17:36:22.763Z,-0.39
2022-12-01T17:38:50.675Z,-0.38
2022-12-01T17:41:19.799Z,-0.42
2022-12-01T17:43:47.919Z,-0.52
2022-12-01T17:46:17.563Z,-0.41
2022-12-01T17:48:46.945Z,-0.43
2022-12-01T17:51:15.432Z,-0.43
2022-12-01T17:53:43.222Z,-0.41
2022-12-01T17:56:13.084Z,-0.40
2022-12-01T17:58:41.651Z,-0.39
2022-12-01T18:01:14.009Z,-0.39
2022-12-01T18:03:43.726Z,-0.39
2022-12-01T18:06:12.006Z,-0.35
2022-12-01T18:08:40.299Z,-0.38
2022-12-01T18:11:10.279Z,-0.37
2022-12-01T18:13:40.907Z,-0.36
2022-12-01T18:16:09.780Z,-0.37
2022-12-01T18:18:38.375Z,-0.36
2022-12-01T19:39:26.799Z,-0.30
2022-12-01T19:41:56.127Z,-0.30
2022-12-01T19:44:23.770Z,-0.29
2022-12-01T19:46:51.599Z,-0.29
2022-12-01T19:49:19.352Z,-0.28
2022-12-01T19:51:46.972Z,-0.29
2022-12-01T19:54:17.088Z,-0.30
2022-12-01T19:56:46.363Z,-0.32
2022-12-01T19:59:13.952Z,-0.28
2022-12-01T20:01:41.809Z,-0.26
2022-12-01T20:04:09.482Z,-0.25
2022-12-01T20:06:37.638Z,-0.24
2022-12-01T20:09:07.441Z,-0.25
2022-12-01T20:11:35.911Z,-0.31
2022-12-01T20:14:06.137Z,-0.26
2022-12-01T20:16:34.122Z,-0.26
2022-12-01T20:19:03.040Z,-0.29
2022-12-01T20:21:32.846Z,-0.31
2022-12-01T20:24:02.656Z,-0.31
2022-12-01T20:26:33.723Z,-0.32
2022-12-01T20:29:04.566Z,-0.35
2022-12-01T20:31:34.500Z,-0.32
2022-12-01T20:34:05.174Z,-0.31
2022-12-01T20:36:32.861Z,-0.32
2022-12-01T20:39:00.610Z,-0.37
2022-12-01T20:41:28.230Z,-0.35
2022-12-01T20:43:55.855Z,-0.37
2022-12-01T20:46:23.976Z,-0.40
2022-12-01T20:48:53.455Z,-0.39
2022-12-01T20:51:21.081Z,-0.41
2022-12-01T20:54:12.298Z,-0.39
2022-12-01T20:56:37.303Z,-0.40
2022-12-01T20:59:04.885Z,-0.45
2022-12-01T21:01:32.775Z,-0.43
2022-12-01T21:04:02.147Z,-0.44
2022-12-01T21:06:30.078Z,-0.44
2022-12-01T21:08:57.767Z,-0.48
2022-12-01T21:11:28.439Z,-0.53
2022-12-01T21:13:56.226Z,-0.48
2022-12-01T21:16:32.601Z,-0.49
2022-12-01T21:19:09.496Z,-0.52
2022-12-01T21:21:40.487Z,-0.46
2022-12-01T21:24:16.009Z,-0.52
2022-12-01T21:26:48.747Z,-0.54
2022-12-01T21:29:20.137Z,-0.54
2022-12-01T21:31:50.827Z,-0.58
2022-12-01T21:34:22.749Z,-0.56
2022-12-01T21:36:51.966Z,-0.64
2022-12-01T21:39:21.751Z,-0.63
2022-12-01T21:41:50.547Z,-0.64
2022-12-01T21:44:20.338Z,-0.67
2022-12-01T21:46:53.213Z,-0.70
2022-12-01T21:49:32.773Z,-0.73
2022-12-01T21:52:00.693Z,-0.75
2022-12-01T21:54:29.230Z,-0.82
2022-12-01T21:56:58.635Z,-0.78
2022-12-01T21:59:26.211Z,-0.79
2022-12-01T22:01:55.533Z,-0.85
2022-12-01T22:04:29.368Z,-0.75
2022-12-01T22:06:58.043Z,-0.72
2022-12-01T22:09:27.723Z,-0.74
2022-12-01T22:11:57.548Z,-0.63
2022-12-01T22:14:29.166Z,-0.59
2022-12-01T22:17:01.397Z,-0.63
2022-12-01T22:19:32.556Z,-0.60
2022-12-01T22:22:02.483Z,-0.57
2022-12-01T22:24:41.062Z,-0.53
2022-12-01T22:27:30.125Z,-0.48
2022-12-01T22:30:00.718Z,-0.51
2022-12-01T22:32:40.567Z,-0.51
2022-12-01T22:35:31.580Z,-0.54
2022-12-01T22:38:21.511Z,-0.49
2022-12-01T22:40:56.635Z,-0.54
2022-12-01T22:43:42.343Z,-0.50
2022-12-01T22:46:30.850Z,-0.49
2022-12-01T22:49:00.982Z,-0.51
2022-12-01T22:51:36.642Z,-0.50
2022-12-01T22:54:24.849Z,-0.49
2022-12-01T22:57:00.740Z,-0.43
2022-12-01T22:59:32.130Z,-0.44
2022-12-01T23:02:02.077Z,-0.44
2022-12-01T23:04:33.599Z,-0.45
2022-12-01T23:07:09.335Z,-0.38
2022-12-01T23:09:39.904Z,-0.40
2022-12-01T23:12:28.862Z,-0.39
2022-12-01T23:14:59.727Z,-0.39
2022-12-01T23:17:29.029Z,-0.39
2022-12-01T23:20:22.382Z,-0.32
2022-12-01T23:22:53.398Z,-0.32
